Time;durP1;ratioP1;P1;durP2;ratioP2;P2;SDS_P1;SDS_P2;PMS_P1;PMS_P2;Temp;Humidity;BMP_temperature;BMP_pressure;BME280_temperature;BME280_humidity;BME280_pressure;Samples;Min_cycle;Max_cycle;Signal;HPM_P1;HPM_P2
2024/01/27 00:00:08;;;;;;;2.55;1.52;;;3.90;99.90;;;;;;5134616;27;20088;-64
2024/01/27 00:02:34;;;;;;;2.35;1.80;;;3.60;99.90;;;;;;5134672;27;20459;-64
2024/01/27 00:05:00;;;;;;;3.75;1.88;;;3.60;99.90;;;;;;5134633;27;20041;-64
2024/01/27 00:07:32;;;;;;;4.43;1.92;;;3.50;99.90;;;;;;5133009;27;20422;-64
2024/01/27 00:09:59;;;;;;;5.75;1.67;;;3.50;99.90;;;;;;5134508;27;20050;-64
2024/01/27 00:12:24;;;;;;;7.50;2.72;;;3.60;99.90;;;;;;5134451;27;20065;-65
2024/01/27 00:14:50;;;;;;;3.05;1.83;;;3.60;99.90;;;;;;5134326;27;20117;-64
2024/01/27 00:17:16;;;;;;;4.30;2.05;;;3.50;99.90;;;;;;5134409;27;20074;-64
2024/01/27 00:19:41;;;;;;;2.70;1.42;;;3.50;99.90;;;;;;5134101;27;20039;-64
2024/01/27 00:22:07;;;;;;;4.35;2.08;;;3.60;99.90;;;;;;5134068;27;20035;-66
2024/01/27 00:24:33;;;;;;;3.83;2.03;;;3.80;99.90;;;;;;5134303;27;20034;-64
2024/01/27 00:26:59;;;;;;;4.50;2.00;;;3.60;99.90;;;;;;5133460;27;20039;-64
2024/01/27 00:29:25;;;;;;;3.92;2.30;;;3.60;99.90;;;;;;5134080;27;20454;-64
2024/01/27 00:31:51;;;;;;;2.80;1.73;;;3.70;99.90;;;;;;5134317;27;20126;-59
2024/01/27 00:34:17;;;;;;;4.40;1.55;;;3.60;99.90;;;;;;5134236;27;20031;-60
2024/01/27 00:36:48;;;;;;;3.20;1.48;;;3.60;99.90;;;;;;5115444;28;20443;-60
2024/01/27 00:39:14;;;;;;;3.78;1.48;;;3.60;99.90;;;;;;5134154;28;20482;-59
2024/01/27 00:41:40;;;;;;;5.97;2.47;;;3.60;99.90;;;;;;5134198;28;20458;-59
2024/01/27 00:44:06;;;;;;;4.88;2.47;;;3.60;99.90;;;;;;5134015;28;20039;-59
2024/01/27 00:46:32;;;;;;;4.55;2.17;;;3.60;99.90;;;;;;5115670;28;20127;-60
2024/01/27 00:48:57;;;;;;;2.25;1.58;;;3.60;99.90;;;;;;5133964;28;20103;-60
2024/01/27 00:51:23;;;;;;;3.28;2.00;;;3.60;99.90;;;;;;5115436;28;20066;-59
2024/01/27 00:53:49;;;;;;;2.90;1.63;;;4.10;99.90;;;;;;5134066;28;20456;-60
2024/01/27 00:56:14;;;;;;;3.55;1.90;;;3.50;99.90;;;;;;5134012;28;20529;-59
2024/01/27 00:58:40;;;;;;;6.18;1.77;;;3.50;99.90;;;;;;5133884;28;20040;-59
2024/01/27 01:01:06;;;;;;;6.90;2.75;;;3.60;99.90;;;;;;5133876;28;20046;-59
2024/01/27 01:03:31;;;;;;;4.35;2.25;;;3.60;99.90;;;;;;5133986;28;20487;-59
2024/01/27 01:05:57;;;;;;;4.03;1.83;;;3.60;99.90;;;;;;5133889;28;20031;-59
2024/01/27 01:08:29;;;;;;;5.28;1.90;;;3.50;99.90;;;;;;5132210;28;20059;-60
2024/01/27 01:10:54;;;;;;;6.35;2.25;;;3.50;99.90;;;;;;5133821;28;20062;-59
2024/01/27 01:13:20;;;;;;;6.20;2.25;;;3.50;99.90;;;;;;5115179;28;20043;-60
2024/01/27 01:15:46;;;;;;;3.97;1.90;;;3.50;99.90;;;;;;5133810;28;20447;-59
2024/01/27 01:18:12;;;;;;;4.78;1.92;;;3.50;99.90;;;;;;5133668;28;20168;-59
2024/01/27 01:20:37;;;;;;;5.47;1.80;;;3.50;99.90;;;;;;5133513;28;20039;-61
2024/01/27 01:23:03;;;;;;;3.42;2.05;;;3.40;99.90;;;;;;5133569;28;20051;-59
2024/01/27 01:25:29;;;;;;;3.33;1.65;;;3.40;99.90;;;;;;5133733;28;20451;-59
2024/01/27 01:27:54;;;;;;;3.20;1.70;;;3.40;99.90;;;;;;5133679;28;20046;-59
2024/01/27 01:30:20;;;;;;;3.22;1.77;;;3.40;99.90;;;;;;5133596;28;20466;-59
2024/01/27 01:32:46;;;;;;;3.25;1.70;;;3.30;99.90;;;;;;5133690;28;20045;-60
2024/01/27 01:35:11;;;;;;;2.97;1.40;;;3.40;99.90;;;;;;5115037;28;20478;-59
2024/01/27 01:37:37;;;;;;;4.50;2.20;;;3.70;99.90;;;;;;5133515;28;20390;-59
2024/01/27 01:40:03;;;;;;;3.72;1.60;;;3.40;99.90;;;;;;5101296;27;20126;-59
2024/01/27 01:42:29;;;;;;;5.72;2.65;;;3.30;99.90;;;;;;5137172;27;20070;-73
2024/01/27 01:44:55;;;;;;;3.47;1.80;;;3.60;99.90;;;;;;5137634;27;20080;-72
2024/01/27 01:47:22;;;;;;;3.97;1.67;;;3.30;99.90;;;;;;5137056;27;20035;-72
2024/01/27 01:49:48;;;;;;;4.78;2.05;;;3.30;99.90;;;;;;5137167;27;20042;-72
2024/01/27 01:52:19;;;;;;;3.95;2.00;;;3.30;99.90;;;;;;5137495;27;20047;-64
2024/01/27 01:54:48;;;;;;;2.17;1.35;;;3.30;99.90;;;;;;5136864;27;20035;-64
2024/01/27 01:57:14;;;;;;;4.57;1.88;;;3.80;99.90;;;;;;5136920;27;20042;-65
2024/01/27 01:59:41;;;;;;;4.38;1.95;;;3.20;99.90;;;;;;5137020;27;20031;-64
2024/01/27 02:02:11;;;;;;;3.20;1.30;;;3.20;99.90;;;;;;5118691;27;20035;-64
2024/01/27 02:04:45;;;;;;;2.60;1.63;;;3.20;99.90;;;;;;5136880;27;20035;-64
2024/01/27 02:07:11;;;;;;;3.47;2.17;;;3.20;99.90;;;;;;5135213;27;20090;-64
2024/01/27 02:09:50;;;;;;;4.13;2.17;;;3.10;99.90;;;;;;5136832;27;20047;-64
2024/01/27 02:12:16;;;;;;;2.47;1.48;;;3.10;99.90;;;;;;5136778;27;20100;-64
2024/01/27 02:14:41;;;;;;;3.30;1.90;;;3.20;99.90;;;;;;5136748;27;20039;-64
2024/01/27 02:17:07;;;;;;;5.95;2.42;;;3.20;99.90;;;;;;5136675;27;20042;-64
2024/01/27 02:19:33;;;;;;;5.60;2.33;;;3.20;99.90;;;;;;5136372;27;20043;-64
2024/01/27 02:21:59;;;;;;;3.58;1.52;;;3.20;99.90;;;;;;5136268;27;20031;-64
2024/01/27 02:24:24;;;;;;;5.93;1.98;;;3.20;99.90;;;;;;5136216;27;20039;-64
2024/01/27 02:26:50;;;;;;;4.90;2.10;;;3.90;99.90;;;;;;5136439;27;20031;-64
2024/01/27 02:29:15;;;;;;;5.32;1.83;;;3.10;99.90;;;;;;5136454;27;20039;-64
2024/01/27 02:31:41;;;;;;;3.10;1.77;;;3.20;99.90;;;;;;5136368;27;20035;-64
2024/01/27 02:34:07;;;;;;;2.75;1.52;;;3.20;99.90;;;;;;5136099;27;20038;-64
2024/01/27 02:36:32;;;;;;;4.82;2.22;;;3.20;99.90;;;;;;5136181;27;20046;-64
2024/01/27 02:38:58;;;;;;;2.45;1.33;;;3.10;99.90;;;;;;5136294;27;20478;-64
2024/01/27 02:41:24;;;;;;;4.78;1.40;;;3.10;99.90;;;;;;5136248;27;20027;-68
2024/01/27 02:43:49;;;;;;;3.38;1.55;;;3.10;99.90;;;;;;5136257;27;20099;-64
2024/01/27 02:46:15;;;;;;;2.70;1.60;;;3.10;99.90;;;;;;5136137;27;20039;-63
2024/01/27 02:48:44;;;;;;;4.97;1.83;;;3.10;99.90;;;;;;5136105;27;20043;-63
2024/01/27 02:51:10;;;;;;;2.35;1.50;;;3.10;99.90;;;;;;5135042;27;20428;-63
2024/01/27 02:53:36;;;;;;;2.90;1.73;;;3.00;99.90;;;;;;5135960;27;20031;-63
2024/01/27 02:56:01;;;;;;;3.70;1.90;;;3.00;99.90;;;;;;5135925;27;20115;-63
2024/01/27 02:58:27;;;;;;;2.58;1.42;;;3.00;99.90;;;;;;5117153;27;20084;-63
2024/01/27 03:00:53;;;;;;;4.28;1.92;;;3.30;99.90;;;;;;5135854;27;20035;-63
2024/01/27 03:03:19;;;;;;;2.60;1.40;;;3.00;99.90;;;;;;5136037;27;20082;-72
2024/01/27 03:05:44;;;;;;;2.25;1.30;;;3.00;99.90;;;;;;5135597;27;20047;-72
2024/01/27 03:08:17;;;;;;;3.22;1.70;;;3.10;99.90;;;;;;5113395;28;20062;-72
2024/01/27 03:10:56;;;;;;;3.33;1.40;;;3.10;99.90;;;;;;5115081;28;20109;-72
2024/01/27 03:13:22;;;;;;;3.47;2.03;;;3.10;99.90;;;;;;5115170;28;20039;-72
2024/01/27 03:15:48;;;;;;;5.35;2.20;;;3.10;99.90;;;;;;5114882;28;20055;-71
2024/01/27 03:18:14;;;;;;;3.58;1.65;;;3.10;99.90;;;;;;5115127;28;20539;-71
2024/01/27 03:20:40;;;;;;;3.13;1.65;;;3.80;99.90;;;;;;5115098;28;20114;-72
2024/01/27 03:23:05;;;;;;;2.15;1.42;;;3.10;99.90;;;;;;5115052;28;20032;-73
2024/01/27 03:25:31;;;;;;;4.78;1.73;;;3.10;99.90;;;;;;5113703;28;20031;-72
2024/01/27 03:27:57;;;;;;;2.30;1.48;;;3.10;99.90;;;;;;5114796;28;20692;-72
2024/01/27 03:30:22;;;;;;;5.13;2.15;;;3.00;99.90;;;;;;5114585;28;20110;-72
2024/01/27 03:32:48;;;;;;;1.90;1.50;;;3.10;99.90;;;;;;5113233;28;20081;-72
2024/01/27 03:35:14;;;;;;;2.30;1.48;;;3.00;99.90;;;;;;5114649;28;20449;-72
2024/01/27 03:37:39;;;;;;;3.72;1.65;;;3.00;99.90;;;;;;5114876;28;20058;-72
2024/01/27 03:40:06;;;;;;;2.53;1.38;;;2.80;99.90;;;;;;5114658;28;20082;-72
2024/01/27 03:42:31;;;;;;;3.90;1.85;;;3.00;99.90;;;;;;5114666;28;20038;-72
2024/01/27 03:44:57;;;;;;;4.45;1.85;;;2.90;99.90;;;;;;5114625;28;20044;-72
2024/01/27 03:47:23;;;;;;;5.68;1.83;;;2.90;99.90;;;;;;5114478;28;20372;-73
2024/01/27 03:49:48;;;;;;;3.83;1.50;;;2.90;99.90;;;;;;5114231;28;20372;-71
2024/01/27 03:52:14;;;;;;;3.95;1.92;;;3.00;99.90;;;;;;5114354;28;20511;-72
2024/01/27 03:54:40;;;;;;;4.47;1.83;;;2.90;99.90;;;;;;5114050;28;20537;-60
2024/01/27 03:57:06;;;;;;;3.70;1.50;;;2.90;99.90;;;;;;5114114;28;20119;-61
2024/01/27 03:59:31;;;;;;;2.33;1.60;;;2.90;99.90;;;;;;5112601;28;20563;-60
2024/01/27 04:01:57;;;;;;;2.83;1.45;;;2.90;99.90;;;;;;5113929;28;20071;-59
2024/01/27 04:04:23;;;;;;;3.40;1.83;;;2.90;99.90;;;;;;5114122;28;20040;-59
2024/01/27 04:06:55;;;;;;;2.00;1.42;;;3.70;99.90;;;;;;5116257;27;20048;-59
2024/01/27 04:09:35;;;;;;;4.85;1.70;;;2.90;99.90;;;;;;5134544;27;20043;-59
2024/01/27 04:12:01;;;;;;;2.80;1.60;;;2.90;99.90;;;;;;5134529;27;20027;-60
2024/01/27 04:14:27;;;;;;;6.18;1.98;;;2.90;99.90;;;;;;5134548;27;20042;-63
2024/01/27 04:16:52;;;;;;;2.03;1.65;;;2.90;99.90;;;;;;5134317;27;20043;-64
2024/01/27 04:19:18;;;;;;;4.40;1.70;;;2.90;99.90;;;;;;5134431;27;20049;-63
2024/01/27 04:21:43;;;;;;;2.42;1.35;;;2.90;99.90;;;;;;5134409;27;20402;-64
2024/01/27 04:24:09;;;;;;;2.55;1.45;;;2.90;99.90;;;;;;5134021;27;20038;-63
2024/01/27 04:26:35;;;;;;;3.85;1.77;;;2.90;99.90;;;;;;5134217;27;20042;-63
2024/01/27 04:29:00;;;;;;;2.33;1.63;;;2.90;99.90;;;;;;5134188;27;20113;-63
2024/01/27 04:31:26;;;;;;;3.30;1.48;;;2.90;99.90;;;;;;5134243;27;20387;-64
2024/01/27 04:33:52;;;;;;;3.42;1.60;;;2.80;99.90;;;;;;5134202;27;20031;-64
2024/01/27 04:36:27;;;;;;;4.78;1.40;;;3.30;99.90;;;;;;5134226;27;20035;-64
2024/01/27 04:38:53;;;;;;;3.83;2.10;;;2.90;99.90;;;;;;5133808;27;20039;-64
2024/01/27 04:41:19;;;;;;;4.35;1.83;;;2.90;99.90;;;;;;5133896;28;20084;-66
2024/01/27 04:43:44;;;;;;;1.80;1.45;;;2.80;99.90;;;;;;5134186;28;20037;-63
2024/01/27 04:46:10;;;;;;;6.88;2.03;;;2.80;99.90;;;;;;5134012;28;20049;-63
2024/01/27 04:48:35;;;;;;;2.33;1.73;;;2.80;99.90;;;;;;5134072;28;20035;-64
2024/01/27 04:51:01;;;;;;;4.15;1.88;;;2.80;99.90;;;;;;5134046;28;20119;-63
2024/01/27 04:53:27;;;;;;;3.97;1.60;;;2.80;99.90;;;;;;5134057;28;20391;-63
2024/01/27 04:55:52;;;;;;;3.05;1.58;;;2.70;99.90;;;;;;5133951;28;20122;-63
2024/01/27 04:58:18;;;;;;;3.00;1.77;;;2.80;99.90;;;;;;5133940;28;20538;-64
2024/01/27 05:00:43;;;;;;;2.58;1.48;;;2.70;99.90;;;;;;5133991;28;20114;-64
2024/01/27 05:03:13;;;;;;;3.28;1.85;;;3.30;99.90;;;;;;5133904;28;20039;-64
2024/01/27 05:05:44;;;;;;;1.85;1.10;;;2.60;99.90;;;;;;5133977;28;20046;-64
2024/01/27 05:08:16;;;;;;;2.58;1.83;;;2.60;99.90;;;;;;5132349;28;20553;-64
2024/01/27 05:10:42;;;;;;;3.35;1.95;;;2.80;99.90;;;;;;5133833;28;20043;-64
2024/01/27 05:13:08;;;;;;;3.88;1.65;;;2.60;99.90;;;;;;5133805;27;20054;-64
2024/01/27 05:15:33;;;;;;;1.88;1.50;;;2.50;99.90;;;;;;5137861;27;20038;-64
2024/01/27 05:17:59;;;;;;;4.03;2.15;;;2.50;99.90;;;;;;5137771;27;20080;-64
2024/01/27 05:20:25;;;;;;;4.55;1.55;;;2.50;99.90;;;;;;5137835;27;20031;-64
2024/01/27 05:22:50;;;;;;;3.10;1.50;;;2.50;99.90;;;;;;5137495;27;20035;-64
2024/01/27 05:25:16;;;;;;;2.60;1.92;;;2.50;99.90;;;;;;5137890;27;20039;-71
2024/01/27 05:27:42;;;;;;;3.80;1.90;;;2.40;99.90;;;;;;5137454;27;20398;-71
2024/01/27 05:30:08;;;;;;;3.78;2.03;;;2.50;99.90;;;;;;5118901;27;20053;-72
2024/01/27 05:32:34;;;;;;;3.75;1.70;;;2.50;99.90;;;;;;5118945;27;20035;-72
2024/01/27 05:35:00;;;;;;;2.20;1.52;;;2.50;99.90;;;;;;5119109;27;20081;-72
2024/01/27 05:37:25;;;;;;;2.70;1.33;;;2.90;99.90;;;;;;5137494;27;20043;-72
2024/01/27 05:39:51;;;;;;;3.70;1.80;;;2.40;99.90;;;;;;5137455;27;20079;-71
2024/01/27 05:42:17;;;;;;;2.60;1.55;;;2.40;99.90;;;;;;5137581;27;20035;-71
2024/01/27 05:44:42;;;;;;;3.45;1.70;;;2.40;99.90;;;;;;5137445;27;20046;-72
2024/01/27 05:47:10;;;;;;;4.72;2.33;;;3.20;99.90;;;;;;5118698;27;20045;-72
2024/01/27 05:49:36;;;;;;;2.05;1.35;;;2.40;99.90;;;;;;5118829;27;20390;-72
2024/01/27 05:52:02;;;;;;;3.53;1.52;;;2.40;99.90;;;;;;5137212;27;20181;-72
2024/01/27 05:54:28;;;;;;;2.53;1.88;;;2.40;99.90;;;;;;5137143;27;20469;-72
2024/01/27 05:56:54;;;;;;;1.92;1.27;;;2.40;99.90;;;;;;5136675;27;20034;-73
2024/01/27 05:59:19;;;;;;;4.55;1.92;;;2.40;99.90;;;;;;5137105;27;20034;-73
2024/01/27 06:01:45;;;;;;;5.45;1.85;;;2.40;99.90;;;;;;5118222;27;20487;-72
2024/01/27 06:04:14;;;;;;;3.72;1.73;;;2.40;99.90;;;;;;5118278;27;20039;-72
2024/01/27 06:06:39;;;;;;;3.45;1.58;;;2.40;99.90;;;;;;5136577;27;20036;-71
2024/01/27 06:09:19;;;;;;;2.45;1.50;;;2.40;99.90;;;;;;5136894;27;20115;-72
2024/01/27 06:11:45;;;;;;;2.38;1.15;;;2.40;99.90;;;;;;5118526;27;20035;-72
2024/01/27 06:14:11;;;;;;;2.28;1.58;;;2.40;99.90;;;;;;5136932;27;20543;-64
2024/01/27 06:16:36;;;;;;;3.20;1.50;;;2.40;99.90;;;;;;5136440;27;20035;-64
2024/01/27 06:19:02;;;;;;;5.10;2.15;;;2.40;99.90;;;;;;5136680;27;20035;-64
2024/01/27 06:21:28;;;;;;;3.35;1.65;;;2.50;99.90;;;;;;5136672;27;20431;-64
2024/01/27 06:23:53;;;;;;;2.78;1.63;;;2.50;99.90;;;;;;5136622;27;20038;-64
2024/01/27 06:26:21;;;;;;;4.30;2.40;;;2.50;99.90;;;;;;5136399;27;20031;-64
2024/01/27 06:28:47;;;;;;;3.58;1.92;;;2.50;99.90;;;;;;5136526;27;20046;-64
2024/01/27 06:31:14;;;;;;;6.22;2.15;;;2.50;99.90;;;;;;5136453;27;20478;-64
2024/01/27 06:33:40;;;;;;;3.30;1.75;;;2.50;99.90;;;;;;5136424;27;20547;-64
2024/01/27 06:36:08;;;;;;;3.35;1.77;;;2.50;99.90;;;;;;5136460;27;20035;-63
2024/01/27 06:38:33;;;;;;;3.50;1.85;;;2.60;99.90;;;;;;5136244;27;20043;-63
2024/01/27 06:40:59;;;;;;;4.18;1.90;;;2.60;99.90;;;;;;5136262;27;20077;-63
2024/01/27 06:43:25;;;;;;;3.90;1.75;;;2.50;99.90;;;;;;5117831;27;20837;-63
2024/01/27 06:45:50;;;;;;;3.47;1.45;;;3.10;99.90;;;;;;5136227;27;20027;-63
2024/01/27 06:48:16;;;;;;;3.30;1.55;;;2.70;99.90;;;;;;5136163;27;20031;-63
2024/01/27 06:50:41;;;;;;;3.97;2.10;;;2.50;99.90;;;;;;5136088;27;20381;-63
2024/01/27 06:53:07;;;;;;;3.00;1.45;;;2.50;99.90;;;;;;5136075;27;20047;-63
2024/01/27 06:55:33;;;;;;;5.38;1.85;;;3.10;99.90;;;;;;5135636;27;20046;-63
2024/01/27 06:57:59;;;;;;;3.78;2.00;;;2.50;99.90;;;;;;5135870;27;20035;-63
2024/01/27 07:00:24;;;;;;;2.15;1.33;;;2.50;99.90;;;;;;5117203;27;20119;-62
2024/01/27 07:02:50;;;;;;;4.03;2.05;;;2.60;99.90;;;;;;5135430;27;20035;-63
2024/01/27 07:05:15;;;;;;;2.67;1.50;;;2.50;99.90;;;;;;5135631;27;20031;-63
2024/01/27 07:07:47;;;;;;;4.07;2.00;;;2.50;99.90;;;;;;5134230;27;20562;-63
2024/01/27 07:10:27;;;;;;;2.45;1.40;;;2.50;99.90;;;;;;5135595;27;20387;-62
2024/01/27 07:12:52;;;;;;;3.63;2.00;;;2.50;99.90;;;;;;5135624;27;20531;-63
2024/01/27 07:15:20;;;;;;;2.35;1.65;;;2.50;99.90;;;;;;5135590;27;20123;-62
2024/01/27 07:17:46;;;;;;;5.35;2.33;;;2.50;99.90;;;;;;5135157;27;20042;-63
2024/01/27 07:20:11;;;;;;;2.72;1.83;;;2.70;99.90;;;;;;5135143;27;20035;-62
2024/01/27 07:22:37;;;;;;;2.53;1.85;;;2.50;99.90;;;;;;5135390;27;20121;-62
2024/01/27 07:25:03;;;;;;;4.05;2.15;;;2.60;99.90;;;;;;5117074;27;20463;-71
2024/01/27 07:27:29;;;;;;;4.35;2.13;;;2.50;99.90;;;;;;5135581;27;20591;-72
2024/01/27 07:29:54;;;;;;;4.40;2.78;;;2.60;99.90;;;;;;5135500;27;20123;-71
2024/01/27 07:32:21;;;;;;;5.55;1.90;;;2.60;99.90;;;;;;5135410;27;20077;-71
2024/01/27 07:34:46;;;;;;;4.93;3.17;;;2.60;99.90;;;;;;5135021;27;20079;-71
2024/01/27 07:37:12;;;;;;;4.28;2.42;;;2.60;99.90;;;;;;5134683;27;20070;-69
2024/01/27 07:39:38;;;;;;;4.00;2.35;;;2.80;99.90;;;;;;5135413;27;20035;-71
2024/01/27 07:42:03;;;;;;;5.10;2.42;;;2.60;99.90;;;;;;5135385;27;20039;-72
2024/01/27 07:44:29;;;;;;;4.47;2.15;;;2.60;99.90;;;;;;5135177;27;20046;-65
2024/01/27 07:46:55;;;;;;;5.75;2.50;;;2.70;99.90;;;;;;5134926;27;20038;-62
2024/01/27 07:49:20;;;;;;;2.65;1.80;;;2.60;99.90;;;;;;5134541;27;20080;-62
2024/01/27 07:51:46;;;;;;;4.97;2.53;;;2.60;99.90;;;;;;5134906;27;20035;-63
2024/01/27 07:54:12;;;;;;;2.88;1.75;;;2.70;99.90;;;;;;5134574;27;20391;-63
2024/01/27 07:56:38;;;;;;;5.10;2.20;;;2.70;99.90;;;;;;5134427;27;20068;-63
2024/01/27 07:59:03;;;;;;;2.75;1.95;;;2.70;99.90;;;;;;5134705;27;20075;-64
2024/01/27 08:01:29;;;;;;;3.95;2.00;;;2.80;99.90;;;;;;5134655;27;20109;-62
2024/01/27 08:03:55;;;;;;;2.55;1.67;;;2.80;99.90;;;;;;5134732;27;20495;-62
2024/01/27 08:06:29;;;;;;;2.85;2.05;;;2.80;99.90;;;;;;5134579;27;20031;-63
2024/01/27 08:09:01;;;;;;;5.13;2.35;;;2.80;99.90;;;;;;5132983;27;20055;-63
2024/01/27 08:11:27;;;;;;;3.58;2.17;;;2.90;99.90;;;;;;5134521;27;20479;-62
2024/01/27 08:13:53;;;;;;;3.60;2.22;;;2.90;99.90;;;;;;5134542;27;20035;-63
2024/01/27 08:16:19;;;;;;;2.85;1.88;;;3.00;99.90;;;;;;5134123;27;20080;-62
2024/01/27 08:18:45;;;;;;;3.85;2.33;;;3.00;99.90;;;;;;5134380;27;20390;-63
2024/01/27 08:21:13;;;;;;;3.58;2.50;;;3.00;99.90;;;;;;5134193;27;20506;-63
2024/01/27 08:23:39;;;;;;;4.90;2.30;;;3.80;99.90;;;;;;5134110;27;20432;-62
2024/01/27 08:26:05;;;;;;;3.63;2.20;;;3.10;99.90;;;;;;5133938;27;20047;-63
2024/01/27 08:28:30;;;;;;;3.58;2.10;;;3.10;99.90;;;;;;5134327;27;20453;-62
2024/01/27 08:30:56;;;;;;;3.28;1.98;;;3.20;99.90;;;;;;5134267;27;20050;-64
2024/01/27 08:33:22;;;;;;;7.00;2.15;;;3.20;99.90;;;;;;5134167;27;20031;-62
2024/01/27 08:35:51;;;;;;;1.98;1.50;;;3.60;99.90;;;;;;5134442;27;20150;-63
2024/01/27 08:38:17;;;;;;;3.75;2.33;;;3.30;99.90;;;;;;5133791;27;20084;-62
2024/01/27 08:40:43;;;;;;;5.47;2.47;;;3.40;99.90;;;;;;5133822;27;20118;-64
2024/01/27 08:43:10;;;;;;;2.85;1.88;;;3.40;99.90;;;;;;5133673;28;20100;-63
2024/01/27 08:45:39;;;;;;;3.97;2.63;;;3.40;99.90;;;;;;5134072;28;20043;-62
2024/01/27 08:48:06;;;;;;;4.38;2.10;;;3.50;99.90;;;;;;5115377;28;20122;-62
2024/01/27 08:50:32;;;;;;;3.50;2.20;;;3.50;99.90;;;;;;5138349;27;20039;-65
2024/01/27 08:52:58;;;;;;;3.20;2.08;;;4.20;99.90;;;;;;5138313;27;20043;-63
2024/01/27 08:55:24;;;;;;;4.32;2.10;;;3.60;99.90;;;;;;5138478;27;20541;-73
2024/01/27 08:57:53;;;;;;;2.20;1.85;;;3.60;99.90;;;;;;5138199;27;20039;-70
2024/01/27 09:00:19;;;;;;;4.47;2.67;;;3.70;99.90;;;;;;5138029;27;20047;-72
2024/01/27 09:02:44;;;;;;;3.38;1.92;;;3.70;99.90;;;;;;5120105;27;20027;-73
2024/01/27 09:05:10;;;;;;;3.80;2.08;;;3.80;99.90;;;;;;5119421;27;20039;-72
2024/01/27 09:07:36;;;;;;;3.45;2.13;;;3.80;99.90;;;;;;5115906;28;20060;-73
2024/01/27 09:10:15;;;;;;;2.20;1.73;;;3.90;99.90;;;;;;5117629;28;20058;-73
2024/01/27 09:12:42;;;;;;;5.75;2.25;;;4.00;99.90;;;;;;5117480;28;20035;-74
2024/01/27 09:15:08;;;;;;;3.05;1.85;;;4.00;99.90;;;;;;5117186;27;20044;-74
2024/01/27 09:17:33;;;;;;;4.95;2.05;;;4.10;99.90;;;;;;5116398;28;20042;-73
2024/01/27 09:19:59;;;;;;;4.60;2.45;;;4.20;99.90;;;;;;5117376;28;20043;-73
2024/01/27 09:22:25;;;;;;;2.03;1.38;;;4.20;99.90;;;;;;5116130;28;20398;-73
2024/01/27 09:24:52;;;;;;;5.90;2.33;;;4.20;99.90;;;;;;5116322;28;20475;-73
2024/01/27 09:27:17;;;;;;;4.30;2.22;;;4.30;99.90;;;;;;5117301;28;20050;-73
2024/01/27 09:29:43;;;;;;;3.60;1.83;;;4.30;99.90;;;;;;5117379;28;20039;-74
2024/01/27 09:32:08;;;;;;;3.67;2.03;;;4.40;99.90;;;;;;5117210;28;20031;-73
2024/01/27 09:34:34;;;;;;;3.92;2.25;;;4.50;99.90;;;;;;5116937;28;20058;-73
2024/01/27 09:37:00;;;;;;;2.83;1.92;;;4.50;99.90;;;;;;5117203;28;20086;-73
2024/01/27 09:39:26;;;;;;;4.57;2.17;;;5.00;99.90;;;;;;5115911;28;20529;-73
2024/01/27 09:41:54;;;;;;;3.17;2.03;;;4.60;99.90;;;;;;5116776;28;20044;-72
2024/01/27 09:44:19;;;;;;;2.40;1.60;;;4.70;99.90;;;;;;5116832;28;20036;-60
2024/01/27 09:46:47;;;;;;;2.97;1.75;;;4.70;99.90;;;;;;5115775;28;20059;-73
2024/01/27 09:49:14;;;;;;;3.63;1.98;;;4.80;99.90;;;;;;5117043;28;20081;-75
2024/01/27 09:51:41;;;;;;;5.28;2.45;;;4.80;99.90;;;;;;5117026;28;20051;-75
2024/01/27 09:54:07;;;;;;;3.45;1.77;;;4.90;99.90;;;;;;5117014;28;20192;-72
2024/01/27 09:56:34;;;;;;;3.08;2.00;;;5.00;99.90;;;;;;5116992;28;20043;-73
2024/01/27 09:59:01;;;;;;;1.98;1.60;;;5.00;99.90;;;;;;5115091;28;20130;-72
2024/01/27 10:01:28;;;;;;;2.00;1.63;;;5.10;99.90;;;;;;5116441;28;20437;-73
2024/01/27 10:03:58;;;;;;;4.65;2.50;;;5.10;99.90;;;;;;5115119;28;20050;-72
2024/01/27 10:06:23;;;;;;;3.78;1.90;;;5.10;99.90;;;;;;5116636;28;20035;-72
2024/01/27 10:09:00;;;;;;;2.78;1.88;;;5.20;99.90;;;;;;5129855;27;20144;-73
2024/01/27 10:11:28;;;;;;;3.35;1.83;;;5.80;99.90;;;;;;5118487;27;20039;-72
2024/01/27 10:13:59;;;;;;;2.80;2.33;;;5.60;99.90;;;;;;5136823;27;20489;-72
2024/01/27 10:16:25;;;;;;;4.75;2.00;;;5.40;99.90;;;;;;5118343;27;20054;-72
2024/01/27 10:19:02;;;;;;;4.40;2.35;;;5.40;99.90;;;;;;5136742;27;20399;-72
2024/01/27 10:21:27;;;;;;;3.35;1.95;;;5.40;99.90;;;;;;5118327;27;20047;-73
2024/01/27 10:23:53;;;;;;;4.60;2.22;;;5.50;99.90;;;;;;5136926;27;20035;-72
2024/01/27 10:26:19;;;;;;;4.65;2.42;;;5.50;99.90;;;;;;5118084;27;20081;-74
2024/01/27 10:28:57;;;;;;;2.38;1.67;;;5.60;99.90;;;;;;5118018;27;20046;-74
2024/01/27 10:31:30;;;;;;;3.50;1.88;;;5.60;99.90;;;;;;5117986;27;20495;-71
2024/01/27 10:33:57;;;;;;;4.72;2.33;;;5.70;99.90;;;;;;5136265;27;20095;-72
2024/01/27 10:36:23;;;;;;;3.50;2.20;;;5.70;99.90;;;;;;5117947;27;20046;-73
2024/01/27 10:38:49;;;;;;;4.97;2.42;;;6.20;99.90;;;;;;5136506;27;20050;-72
2024/01/27 10:41:26;;;;;;;2.72;2.00;;;5.80;99.90;;;;;;5117783;27;20035;-74
2024/01/27 10:43:55;;;;;;;3.05;1.98;;;5.90;99.90;;;;;;5136041;27;20035;-73
2024/01/27 10:46:21;;;;;;;3.15;2.05;;;6.40;99.90;;;;;;5117904;27;20043;-73
2024/01/27 10:48:58;;;;;;;3.28;2.35;;;6.00;99.90;;;;;;5136625;27;20118;-73
2024/01/27 10:51:35;;;;;;;2.88;2.00;;;6.00;99.90;;;;;;5136421;27;20054;-72
2024/01/27 10:54:03;;;;;;;2.50;2.00;;;6.10;99.90;;;;;;5135963;27;20046;-71
2024/01/27 10:56:33;;;;;;;2.20;1.77;;;6.10;99.90;;;;;;5117590;27;20075;-60
2024/01/27 10:58:59;;;;;;;3.63;2.20;;;6.20;99.90;;;;;;5135793;27;20039;-60
2024/01/27 11:01:26;;;;;;;3.50;2.30;;;6.30;99.90;;;;;;5117138;27;20386;-60
2024/01/27 11:03:54;;;;;;;2.75;2.20;;;6.30;99.90;;;;;;5117094;27;20042;-59
2024/01/27 11:06:22;;;;;;;2.70;1.90;;;6.40;99.90;;;;;;5117350;27;20047;-60
2024/01/27 11:08:49;;;;;;;4.18;2.45;;;7.00;99.90;;;;;;5134169;27;20081;-60
2024/01/27 11:11:22;;;;;;;4.35;2.20;;;6.50;99.90;;;;;;5134779;27;20047;-60
2024/01/27 11:13:48;;;;;;;3.45;2.08;;;6.50;99.90;;;;;;5135599;27;20497;-60
2024/01/27 11:16:17;;;;;;;2.28;1.83;;;6.60;99.90;;;;;;5135408;27;20027;-62
2024/01/27 11:18:43;;;;;;;3.53;2.58;;;6.70;99.90;;;;;;5135462;27;20539;-62
2024/01/27 11:21:16;;;;;;;2.30;1.88;;;6.80;99.90;;;;;;5135429;27;20110;-62
2024/01/27 11:23:42;;;;;;;4.20;2.40;;;6.80;99.90;;;;;;5135474;27;20035;-62
2024/01/27 11:26:09;;;;;;;5.45;2.58;;;6.90;99.90;;;;;;5135302;27;20107;-62
2024/01/27 11:28:36;;;;;;;3.40;2.40;;;7.00;99.90;;;;;;5135032;27;20092;-62
2024/01/27 11:31:09;;;;;;;3.47;2.13;;;7.00;99.90;;;;;;5134993;27;20043;-62
2024/01/27 11:33:43;;;;;;;4.00;2.65;;;7.10;99.90;;;;;;5116640;27;20372;-63
2024/01/27 11:36:26;;;;;;;4.07;2.10;;;7.20;99.90;;;;;;5135163;27;20039;-62
2024/01/27 11:38:53;;;;;;;2.22;1.80;;;7.30;99.90;;;;;;5134842;27;20047;-63
2024/01/27 11:41:29;;;;;;;5.13;2.58;;;7.30;99.90;;;;;;5116354;27;20034;-62
2024/01/27 11:43:57;;;;;;;2.25;1.88;;;7.70;99.90;;;;;;5134745;27;20528;-62
2024/01/27 11:46:23;;;;;;;5.07;1.98;;;7.90;99.90;;;;;;5116353;27;20089;-62
2024/01/27 11:48:49;;;;;;;3.63;2.00;;;8.40;99.90;;;;;;5134918;27;20034;-62
2024/01/27 11:51:14;;;;;;;3.45;2.15;;;8.40;99.90;;;;;;5134917;27;20509;-62
2024/01/27 11:53:40;;;;;;;2.83;1.70;;;8.60;99.90;;;;;;5134815;27;20043;-62
2024/01/27 11:56:07;;;;;;;2.30;1.55;;;8.70;99.90;;;;;;5134827;27;20403;-62
2024/01/27 11:58:33;;;;;;;2.55;1.83;;;8.60;99.90;;;;;;5134736;27;20493;-62
2024/01/27 12:01:22;;;;;;;3.13;1.83;;;8.70;99.90;;;;;;5134706;27;20482;-62
2024/01/27 12:03:55;;;;;;;2.58;1.75;;;;;;;;;;5134674;27;20379;-63
2024/01/27 12:06:21;;;;;;;2.30;1.60;;;;;;;;;;5134778;27;20401;-61
2024/01/27 12:09:01;;;;;;;3.45;1.90;;;;;;;;;;5133038;27;20418;-60
2024/01/27 12:11:34;;;;;;;2.15;1.95;;;;;;;;;;5134518;27;20043;-61
2024/01/27 12:14:00;;;;;;;3.42;1.52;;;10.20;99.90;;;;;;5134177;27;20089;-60
2024/01/27 12:16:25;;;;;;;2.92;1.35;;;10.30;99.90;;;;;;5134156;27;20039;-61
2024/01/27 12:18:54;;;;;;;1.88;1.23;;;10.50;99.90;;;;;;5134411;27;20513;-61
2024/01/27 12:21:20;;;;;;;1.88;1.10;;;10.50;99.90;;;;;;5134395;27;20117;-61
2024/01/27 12:23:53;;;;;;;2.20;1.27;;;10.70;99.90;;;;;;5134268;27;20074;-62
2024/01/27 12:26:23;;;;;;;3.10;1.70;;;10.50;99.90;;;;;;5134461;27;20156;-60
2024/01/27 12:28:48;;;;;;;2.33;1.33;;;10.60;99.90;;;;;;5134379;27;20039;-60
2024/01/27 12:31:18;;;;;;;3.45;1.60;;;10.60;99.90;;;;;;5134248;27;20035;-60
2024/01/27 12:33:52;;;;;;;1.70;1.42;;;10.40;99.90;;;;;;5134298;27;20039;-60
2024/01/27 12:36:20;;;;;;;1.90;1.38;;;10.30;99.90;;;;;;5134279;27;20039;-60
2024/01/27 12:38:59;;;;;;;2.85;1.77;;;10.50;99.90;;;;;;5134136;27;20043;-60
2024/01/27 12:41:26;;;;;;;2.85;1.48;;;10.20;99.90;;;;;;5134368;27;20110;-61
2024/01/27 12:43:52;;;;;;;3.10;1.77;;;9.80;99.90;;;;;;5115597;27;20043;-60
2024/01/27 12:46:18;;;;;;;2.65;1.48;;;9.60;99.90;;;;;;5134034;28;20043;-61
2024/01/27 12:48:45;;;;;;;4.15;1.88;;;9.40;99.90;;;;;;5133796;28;20047;-60
2024/01/27 12:51:11;;;;;;;1.73;1.23;;;9.40;99.90;;;;;;5134041;28;20035;-60
2024/01/27 12:53:41;;;;;;;3.58;1.60;;;9.10;99.90;;;;;;5115808;28;20502;-60
2024/01/27 12:56:08;;;;;;;2.65;1.67;;;9.00;99.90;;;;;;5134061;28;20058;-60